Time;durP1;ratioP1;P1;durP2;ratioP2;P2;SDS_P1;SDS_P2;PMS_P1;PMS_P2;Temp;Humidity;BMP_temperature;BMP_pressure;BME280_temperature;BME280_humidity;BME280_pressure;Samples;Min_cycle;Max_cycle;Signal;HPM_P1;HPM_P2
2024/02/05 00:00:29;;;;;;;9.60;5.72;;;;;;;3.43;69.45;95016.59;4973117;28;20026;-72
2024/02/05 00:02:56;;;;;;;10.23;6.13;;;;;;;3.29;69.96;95011.31;4972796;28;20042;-72
2024/02/05 00:05:21;;;;;;;7.90;5.68;;;;;;;3.48;70.71;95012.03;4971709;28;20089;-71
2024/02/05 00:07:47;;;;;;;9.95;6.28;;;;;;;3.57;69.94;95014.13;4971514;28;20039;-72
2024/02/05 00:10:13;;;;;;;11.23;6.53;;;;;;;3.24;72.64;94954.25;4971535;28;20460;-72
2024/02/05 00:12:38;;;;;;;9.45;6.47;;;;;;;3.61;73.31;94988.28;4972925;28;20086;-71
2024/02/05 00:15:05;;;;;;;8.55;5.93;;;;;;;3.79;72.90;94987.31;4971350;28;20054;-72
2024/02/05 00:17:31;;;;;;;9.23;6.03;;;;;;;3.71;72.28;94950.91;4971389;28;20041;-71
2024/02/05 00:19:56;;;;;;;9.98;5.90;;;;;;;3.71;73.07;94963.75;4955066;28;20026;-72
2024/02/05 00:22:22;;;;;;;9.95;5.70;;;;;;;3.99;72.33;94983.66;4972520;28;20200;-71
2024/02/05 00:24:47;;;;;;;8.77;5.30;;;;;;;4.05;72.05;94985.06;4978578;28;20026;-72
2024/02/05 00:27:13;;;;;;;9.00;5.22;;;;;;;4.06;72.09;94973.84;4991563;28;20108;-71
2024/02/05 00:29:38;;;;;;;9.80;5.40;;;;;;;4.10;71.18;94971.03;4990573;28;20500;-71
2024/02/05 00:32:04;;;;;;;11.43;5.53;;;;;;;4.11;71.19;94956.44;4990543;28;20046;-72
2024/02/05 00:34:29;;;;;;;9.52;5.70;;;;;;;4.06;71.54;94973.84;4973940;28;20425;-72
2024/02/05 00:36:55;;;;;;;8.38;4.70;;;;;;;4.21;71.12;94949.88;4991655;28;20074;-72
2024/02/05 00:39:20;;;;;;;9.48;5.40;;;;;;;3.97;71.71;94965.72;4989808;28;20038;-71
2024/02/05 00:41:46;;;;;;;9.85;5.30;;;;;;;4.23;70.82;94960.91;4974149;28;20500;-71
2024/02/05 00:44:11;;;;;;;11.60;5.32;;;;;;;4.06;71.24;94948.97;4974008;28;20030;-72
2024/02/05 00:46:37;;;;;;;10.82;5.55;;;;;;;4.10;71.12;94965.06;4990370;28;20034;-71
2024/02/05 00:49:02;;;;;;;12.48;6.40;;;;;;;4.10;70.11;94959.94;4972810;28;20042;-72
2024/02/05 00:51:28;;;;;;;9.65;6.03;;;;;;;3.68;70.54;94948.50;4970872;28;20035;-71
2024/02/05 00:53:53;;;;;;;10.57;4.68;;;;;;;3.76;69.88;94948.91;4970662;28;20027;-72
2024/02/05 00:56:18;;;;;;;9.32;5.22;;;;;;;3.69;69.57;94934.75;4972078;28;20031;-71
2024/02/05 00:58:44;;;;;;;8.30;4.68;;;;;;;3.66;69.84;94951.16;4954584;28;20497;-72
2024/02/05 01:01:10;;;;;;;9.25;5.03;;;;;;;3.58;69.70;94932.75;4970778;28;20027;-72
2024/02/05 01:03:35;;;;;;;8.75;4.72;;;;;;;3.28;70.60;94946.28;4974093;28;20417;-72
2024/02/05 01:06:01;;;;;;;8.60;5.28;;;;;;;3.26;71.83;94947.25;4976407;28;20038;-72
2024/02/05 01:08:26;;;;;;;7.78;4.30;;;;;;;3.37;71.21;94937.25;4978614;28;20030;-71
2024/02/05 01:10:52;;;;;;;10.90;4.72;;;;;;;2.97;71.81;94921.38;4962376;28;20027;-72
2024/02/05 01:13:21;;;;;;;8.35;4.70;;;;;;;3.10;72.09;94942.94;4974668;28;20041;-72
2024/02/05 01:15:46;;;;;;;8.82;5.18;;;;;;;3.11;71.54;94938.63;4974626;28;20516;-73
2024/02/05 01:18:12;;;;;;;8.23;4.95;;;;;;;2.87;72.28;94946.69;4989018;28;20034;-71
2024/02/05 01:20:37;;;;;;;5.63;3.83;;;;;;;2.87;71.07;94900.50;4982771;28;20041;-71
2024/02/05 01:23:02;;;;;;;6.57;4.20;;;;;;;2.76;73.34;94902.78;4974493;28;20030;-71
2024/02/05 01:25:28;;;;;;;6.18;4.32;;;;;;;2.80;73.04;94934.22;4974614;28;20390;-72
2024/02/05 01:27:54;;;;;;;6.78;4.88;;;;;;;2.60;72.73;94927.53;4980468;28;20034;-71
2024/02/05 01:30:19;;;;;;;7.00;4.18;;;;;;;2.47;73.13;94906.78;4977349;28;20512;-71
2024/02/05 01:32:45;;;;;;;7.15;4.30;;;;;;;2.33;73.97;94914.34;4993786;28;20039;-71
2024/02/05 01:35:10;;;;;;;17.50;9.95;;;;;;;2.55;72.88;94934.63;5015063;28;20056;-71
2024/02/05 01:37:36;;;;;;;6.97;4.90;;;;;;;2.27;73.84;94930.03;5034292;28;20029;-71
2024/02/05 01:40:09;;;;;;;9.13;6.07;;;;;;;2.26;75.06;94928.34;4995222;28;20100;-71
2024/02/05 01:42:36;;;;;;;10.65;6.28;;;;;;;2.22;73.91;94912.28;5013572;28;20040;-71
2024/02/05 01:45:02;;;;;;;8.05;5.40;;;;;;;2.09;75.07;94912.06;4997092;28;20408;-72
2024/02/05 01:47:31;;;;;;;10.52;7.35;;;;;;;2.18;75.17;94911.63;4980788;28;20044;-71
2024/02/05 01:49:56;;;;;;;8.07;4.93;;;;;;;2.37;74.07;94901.31;5012449;28;20376;-71
2024/02/05 01:52:21;;;;;;;6.80;4.57;;;;;;;2.15;74.80;94883.56;4980540;28;20092;-72
2024/02/05 01:54:47;;;;;;;7.68;3.97;;;;;;;2.10;75.10;94872.72;4996654;28;20026;-72
2024/02/05 01:57:12;;;;;;;5.63;3.40;;;;;;;2.07;76.59;94867.75;5014138;28;20052;-71
2024/02/05 01:59:38;;;;;;;5.20;3.35;;;;;;;2.45;75.91;94883.81;5004281;28;20494;-72
2024/02/05 02:02:03;;;;;;;6.72;3.85;;;;;;;2.44;75.05;94878.75;5016199;28;20034;-71
2024/02/05 02:04:29;;;;;;;5.90;3.78;;;;;;;2.37;76.17;94867.97;5016081;28;20037;-71
2024/02/05 02:06:54;;;;;;;5.65;3.63;;;;;;;2.22;75.19;94871.28;5033705;28;20030;-72
2024/02/05 02:09:19;;;;;;;6.60;3.67;;;;;;;1.99;76.26;94873.22;5033709;28;20025;-71
2024/02/05 02:11:45;;;;;;;8.02;5.15;;;;;;;2.22;75.49;94845.66;4983419;28;20048;-71
2024/02/05 02:14:10;;;;;;;8.63;4.75;;;;;;;2.22;75.28;94872.09;4998083;28;20454;-72
2024/02/05 02:16:36;;;;;;;7.65;4.72;;;;;;;2.12;75.54;94835.03;4999614;28;20034;-71
2024/02/05 02:19:04;;;;;;;7.10;4.47;;;;;;;1.91;76.41;94825.81;5015697;28;20036;-71
2024/02/05 02:21:30;;;;;;;8.95;5.05;;;;;;;1.88;76.94;94834.50;4999833;28;20033;-71
2024/02/05 02:23:55;;;;;;;11.25;8.52;;;;;;;1.99;76.34;94836.53;5015618;28;20025;-71
2024/02/05 02:26:21;;;;;;;10.02;6.93;;;;;;;1.78;77.04;94852.06;5006401;28;20507;-71
2024/02/05 02:28:46;;;;;;;9.52;7.05;;;;;;;1.71;77.66;94840.44;4995852;28;20072;-71
2024/02/05 02:31:12;;;;;;;10.75;7.57;;;;;;;1.87;76.66;94832.84;4996813;28;20037;-71
2024/02/05 02:33:57;;;;;;;9.55;6.90;;;;;;;1.86;76.62;94838.84;5013528;28;20025;-71
2024/02/05 02:36:26;;;;;;;8.15;5.70;;;;;;;1.99;76.62;94849.34;5014015;28;20136;-72
2024/02/05 02:38:55;;;;;;;11.30;7.97;;;;;;;1.90;75.88;94829.31;5032558;28;20029;-71
2024/02/05 02:41:27;;;;;;;14.65;9.05;;;;;;;1.85;76.58;94851.75;4998421;28;20068;-72
2024/02/05 02:43:58;;;;;;;11.45;7.13;;;;;;;1.68;76.65;94817.53;4998953;28;20033;-71
2024/02/05 02:46:24;;;;;;;11.88;7.32;;;;;;;1.67;78.35;94838.06;4982687;28;20034;-71
2024/02/05 02:48:50;;;;;;;13.75;8.40;;;;;;;1.93;76.95;94844.53;4998744;28;20026;-71
2024/02/05 02:51:15;;;;;;;16.00;8.93;;;;;;;1.91;76.61;94824.09;5015281;28;20510;-71
2024/02/05 02:53:41;;;;;;;10.40;5.88;;;;;;;1.67;77.46;94821.00;5015336;28;20499;-71
2024/02/05 02:56:06;;;;;;;12.93;6.55;;;;;;;1.86;77.72;94814.97;4998098;28;20444;-71
2024/02/05 02:58:32;;;;;;;10.48;5.68;;;;;;;1.95;77.31;94811.94;4998498;28;20030;-71
2024/02/05 03:00:57;;;;;;;8.85;6.13;;;;;;;2.00;77.01;94800.56;5033027;28;20029;-71
2024/02/05 03:03:23;;;;;;;10.63;6.22;;;;;;;1.73;77.68;94805.34;5026357;28;20487;-71
2024/02/05 03:05:48;;;;;;;9.88;5.80;;;;;;;1.89;77.27;94799.44;4999103;28;20443;-72
2024/02/05 03:08:14;;;;;;;10.82;7.53;;;;;;;1.90;76.96;94812.19;5012541;28;20120;-71
2024/02/05 03:10:39;;;;;;;6.50;4.50;;;;;;;1.92;78.16;94801.84;4998242;28;20557;-71
2024/02/05 03:13:04;;;;;;;9.85;4.88;;;;;;;1.91;78.18;94807.91;5014796;28;20033;-71
2024/02/05 03:15:30;;;;;;;5.57;3.30;;;;;;;1.99;77.39;94813.47;4993621;28;20025;-72
2024/02/05 03:17:56;;;;;;;6.25;4.18;;;;;;;1.82;77.66;94826.28;5010551;28;20038;-72
2024/02/05 03:20:41;;;;;;;9.68;7.15;;;;;;;1.87;77.78;94799.53;4995136;28;20088;-72
2024/02/05 03:23:07;;;;;;;8.18;4.63;;;;;;;1.80;78.89;94823.78;4978864;28;20113;-72
2024/02/05 03:25:33;;;;;;;10.27;6.10;;;;;;;1.61;78.52;94813.59;5012079;28;20036;-71
2024/02/05 03:27:59;;;;;;;8.95;5.82;;;;;;;1.95;77.74;94814.50;4998229;28;20035;-71
2024/02/05 03:30:29;;;;;;;7.80;5.38;;;;;;;1.87;78.46;94789.28;4998458;28;20117;-71
2024/02/05 03:32:55;;;;;;;9.15;4.65;;;;;;;1.99;78.02;94811.72;4995294;28;20033;-72
2024/02/05 03:35:22;;;;;;;8.13;4.80;;;;;;;1.87;78.53;94783.34;4994623;28;20057;-71
2024/02/05 03:37:48;;;;;;;7.28;4.68;;;;;;;2.02;78.25;94785.13;4978424;28;20496;-72
2024/02/05 03:40:14;;;;;;;6.90;4.43;;;;;;;2.03;78.65;94824.38;5020042;28;20045;-71
2024/02/05 03:42:39;;;;;;;8.80;5.65;;;;;;;2.15;77.90;94816.13;4997916;28;20573;-72
2024/02/05 03:45:05;;;;;;;16.70;8.00;;;;;;;2.13;78.11;94815.34;5013964;28;20033;-71
2024/02/05 03:47:30;;;;;;;8.13;5.72;;;;;;;2.26;77.37;94810.44;5014423;28;20423;-71
2024/02/05 03:49:56;;;;;;;7.40;4.78;;;;;;;2.26;76.60;94810.44;5031906;28;20396;-71
2024/02/05 03:52:21;;;;;;;7.10;5.53;;;;;;;2.21;76.67;94810.69;4997664;28;20044;-71
2024/02/05 03:54:47;;;;;;;7.63;4.40;;;;;;;2.08;77.15;94784.81;4997447;28;20029;-72
2024/02/05 03:57:13;;;;;;;7.50;4.20;;;;;;;1.91;77.83;94805.34;5014085;28;20419;-71
2024/02/05 03:59:39;;;;;;;5.93;3.70;;;;;;;2.21;77.51;94824.31;5013992;28;20022;-71
2024/02/05 04:02:04;;;;;;;6.95;4.78;;;;;;;2.19;77.28;94836.38;5013978;28;20048;-71
2024/02/05 04:04:29;;;;;;;7.47;4.57;;;;;;;2.28;77.02;94834.25;5013852;28;20030;-72
2024/02/05 04:06:55;;;;;;;8.23;5.22;;;;;;;2.29;77.22;94820.56;5031479;28;20038;-72
2024/02/05 04:09:20;;;;;;;7.15;4.65;;;;;;;2.09;77.14;94827.50;5030564;28;20376;-72
2024/02/05 04:11:45;;;;;;;5.00;3.40;;;;;;;2.40;76.32;94869.56;5013762;28;20038;-71
2024/02/05 04:14:11;;;;;;;5.57;3.85;;;;;;;2.42;76.32;94836.94;5013527;28;20037;-71
2024/02/05 04:16:37;;;;;;;4.15;2.60;;;;;;;2.21;76.91;94838.88;4978696;28;20056;-71
2024/02/05 04:19:02;;;;;;;8.25;5.20;;;;;;;2.27;76.25;94856.50;4981435;28;20506;-71
2024/02/05 04:21:28;;;;;;;10.68;6.95;;;;;;;2.42;75.74;94863.44;4977691;28;20045;-72
2024/02/05 04:23:53;;;;;;;9.02;4.90;;;;;;;2.41;75.86;94873.78;4993764;28;20044;-71
2024/02/05 04:26:19;;;;;;;7.38;5.35;;;;;;;2.28;76.25;94875.28;5011448;28;20033;-72
2024/02/05 04:28:45;;;;;;;8.02;4.60;;;;;;;2.33;76.32;94876.72;4977825;28;20502;-71
2024/02/05 04:31:11;;;;;;;7.60;4.22;;;;;;;2.45;74.97;94885.50;4993681;28;20118;-71
2024/02/05 04:33:36;;;;;;;4.75;2.60;;;;;;;2.26;75.41;94856.56;5009977;28;20025;-71
2024/02/05 04:36:01;;;;;;;4.85;3.17;;;;;;;2.60;74.74;94866.81;4993405;28;20057;-72
2024/02/05 04:38:27;;;;;;;11.95;6.07;;;;;;;2.24;75.05;94836.97;5010596;28;20057;-71
2024/02/05 04:40:52;;;;;;;11.27;6.10;;;;;;;2.66;74.74;94879.31;4977489;28;20419;-71
2024/02/05 04:43:18;;;;;;;7.90;4.95;;;;;;;2.61;74.91;94885.59;4993708;28;20034;-71
2024/02/05 04:45:43;;;;;;;7.75;4.85;;;;;;;2.62;74.67;94885.53;4977423;28;20034;-71
2024/02/05 04:48:09;;;;;;;8.20;5.18;;;;;;;2.43;75.90;94888.16;4993624;28;20459;-72
2024/02/05 04:50:34;;;;;;;13.90;7.72;;;;;;;2.61;74.55;94883.03;5011358;28;20026;-71
2024/02/05 04:52:59;;;;;;;29.15;14.75;;;;;;;2.27;76.26;94884.72;5010790;28;20041;-71
2024/02/05 04:55:25;;;;;;;6.03;3.95;;;;;;;2.22;75.34;94861.84;5008439;28;20029;-71
2024/02/05 04:57:50;;;;;;;6.45;3.90;;;;;;;2.28;75.48;94855.59;5030736;28;20034;-72
2024/02/05 05:00:17;;;;;;;5.80;3.40;;;;;;;2.38;75.06;94881.63;5008221;28;20030;-72
2024/02/05 05:02:42;;;;;;;5.63;3.03;;;;;;;2.42;75.37;94894.22;5002521;28;20113;-71
2024/02/05 05:05:08;;;;;;;4.43;2.60;;;;;;;2.36;74.94;94878.28;5013087;28;20034;-71
2024/02/05 05:07:33;;;;;;;7.03;2.95;;;;;;;2.20;75.28;94858.56;5030685;28;20034;-71
2024/02/05 05:10:00;;;;;;;8.75;4.95;;;;;;;2.22;75.36;94882.34;5016821;28;20049;-71
2024/02/05 05:12:27;;;;;;;7.72;3.15;;;;;;;2.15;75.23;94890.44;5010945;28;20034;-72
2024/02/05 05:14:52;;;;;;;5.53;3.50;;;;;;;2.08;75.78;94846.31;4994160;28;20080;-71
2024/02/05 05:17:17;;;;;;;5.15;3.28;;;;;;;2.48;75.30;94882.81;5015238;28;20034;-71
2024/02/05 05:19:43;;;;;;;5.55;3.25;;;;;;;2.57;74.34;94884.91;4995285;28;20419;-71
2024/02/05 05:22:08;;;;;;;6.18;4.00;;;;;;;2.55;74.95;94906.41;5009017;28;20029;-71
2024/02/05 05:24:34;;;;;;;6.55;3.53;;;;;;;2.54;74.37;94887.63;5010806;28;20038;-72
2024/02/05 05:26:59;;;;;;;7.15;4.28;;;;;;;2.57;74.66;94878.97;5008171;28;20042;-72
2024/02/05 05:29:25;;;;;;;9.90;3.42;;;;;;;2.49;74.51;94896.47;4990229;28;20033;-71
2024/02/05 05:31:50;;;;;;;5.35;2.63;;;;;;;2.54;74.70;94886.81;5009662;28;20446;-72
2024/02/05 05:34:16;;;;;;;4.30;3.20;;;;;;;2.39;75.60;94916.59;5024353;28;20038;-72
2024/02/05 05:36:42;;;;;;;5.85;3.17;;;;;;;2.64;74.07;94911.91;5008149;28;20040;-72
2024/02/05 05:39:09;;;;;;;5.38;3.05;;;;;;;2.62;73.92;94921.44;4990706;28;20037;-72
2024/02/05 05:41:35;;;;;;;7.70;3.92;;;;;;;2.44;73.90;94917.22;5010544;28;20102;-71
2024/02/05 05:44:02;;;;;;;4.93;2.78;;;;;;;2.64;73.35;94911.06;5009684;28;20029;-71
2024/02/05 05:46:28;;;;;;;5.93;3.65;;;;;;;2.45;74.32;94939.38;5013460;28;20121;-72
2024/02/05 05:48:54;;;;;;;7.13;3.17;;;;;;;2.41;74.47;94932.75;5005053;28;20124;-71
2024/02/05 05:51:19;;;;;;;7.88;3.33;;;;;;;2.48;74.04;94959.75;4983468;28;20037;-71
2024/02/05 05:53:44;;;;;;;5.70;3.50;;;;;;;2.37;73.83;94938.94;4996759;28;20021;-71
2024/02/05 05:56:10;;;;;;;7.63;4.07;;;;;;;2.15;75.03;94934.84;5008469;28;20419;-72
2024/02/05 05:58:36;;;;;;;5.47;3.50;;;;;;;2.34;74.89;94939.06;5012798;28;20041;-71
2024/02/05 06:01:05;;;;;;;6.15;3.75;;;;;;;2.37;75.36;94929.50;5031674;28;20060;-72
2024/02/05 06:03:31;;;;;;;5.15;3.25;;;;;;;2.31;75.61;94931.53;4995064;28;20057;-71
2024/02/05 06:05:57;;;;;;;6.10;3.10;;;;;;;2.19;76.46;94935.50;5003130;28;20287;-72
2024/02/05 06:08:22;;;;;;;6.00;3.00;;;;;;;2.27;76.36;94930.03;5028262;28;20033;-72
2024/02/05 06:10:48;;;;;;;4.97;2.85;;;;;;;2.17;76.60;94897.16;5008615;28;20053;-70
2024/02/05 06:13:13;;;;;;;5.75;3.08;;;;;;;2.39;76.19;94916.59;4981233;28;20042;-71
2024/02/05 06:15:39;;;;;;;6.45;2.80;;;;;;;2.44;76.47;94918.03;4999139;28;20559;-71
2024/02/05 06:18:04;;;;;;;5.63;3.17;;;;;;;2.51;76.85;94927.97;5013728;28;20040;-71
2024/02/05 06:20:30;;;;;;;6.65;3.97;;;;;;;2.80;75.81;94913.72;5020203;28;20075;-71
2024/02/05 06:22:55;;;;;;;5.15;3.05;;;;;;;3.01;74.52;94922.88;5010295;28;20037;-71
2024/02/05 06:25:20;;;;;;;5.10;3.40;;;;;;;3.23;74.18;94937.16;5032533;28;20029;-71
2024/02/05 06:27:46;;;;;;;12.85;8.85;;;;;;;3.33;73.55;94923.75;5014702;28;20099;-71
2024/02/05 06:30:12;;;;;;;8.60;5.35;;;;;;;3.18;73.84;94937.41;5011553;28;20075;-71
2024/02/05 06:32:37;;;;;;;311.83;121.78;;;;;;;3.31;73.97;94943.53;5010331;28;20084;-71
2024/02/05 06:35:03;;;;;;;16.58;7.63;;;;;;;3.33;74.08;94935.78;4991552;28;20124;-71
2024/02/05 06:37:29;;;;;;;14.68;7.93;;;;;;;3.36;74.28;94948.47;4998353;28;20519;-71
2024/02/05 06:39:54;;;;;;;9.00;3.80;;;;;;;3.27;74.63;94939.50;5026404;28;20052;-71
2024/02/05 06:42:21;;;;;;;12.32;4.00;;;;;;;3.49;74.39;94923.78;5006193;28;20041;-70
2024/02/05 06:44:47;;;;;;;6.95;3.60;;;;;;;3.78;72.17;94947.91;5011472;28;20021;-71
2024/02/05 06:47:12;;;;;;;6.75;4.20;;;;;;;4.14;70.46;94936.53;5012346;28;20095;-74
2024/02/05 06:49:38;;;;;;;5.63;3.15;;;;;;;4.78;66.41;94946.66;5004330;28;20038;-73
2024/02/05 06:52:04;;;;;;;7.35;4.15;;;;;;;4.98;66.34;94946.31;4990165;28;20041;-72
2024/02/05 06:54:30;;;;;;;9.35;5.78;;;;;;;5.22;65.29;94938.06;4988292;28;20514;-71
2024/02/05 06:56:56;;;;;;;6.25;3.50;;;;;;;5.36;64.09;94928.59;5005467;28;20034;-71
2024/02/05 06:59:21;;;;;;;10.43;4.13;;;;;;;5.67;62.32;94933.63;5013736;28;20488;-69
2024/02/05 07:01:46;;;;;;;9.88;5.78;;;;;;;5.86;62.07;94928.16;5032324;28;20030;-69
2024/02/05 07:04:12;;;;;;;6.78;4.10;;;;;;;5.91;63.19;94918.38;5030966;28;20021;-69
2024/02/05 07:06:37;;;;;;;6.40;3.92;;;;;;;5.97;63.36;94928.34;5019103;28;20034;-69
2024/02/05 07:09:03;;;;;;;8.00;4.15;;;;;;;6.06;63.99;94914.84;5015303;28;20034;-69
2024/02/05 07:11:28;;;;;;;7.30;4.53;;;;;;;6.25;64.22;94930.81;5013293;28;20056;-73
2024/02/05 07:13:54;;;;;;;10.73;6.10;;;;;;;6.38;63.82;94930.03;4984498;28;20025;-71
2024/02/05 07:16:21;;;;;;;10.57;5.28;;;;;;;6.34;63.77;94937.13;5027591;28;20034;-72
2024/02/05 07:18:47;;;;;;;14.73;7.40;;;;;;;6.37;62.08;94952.41;5032233;28;20542;-72
2024/02/05 07:21:12;;;;;;;14.80;6.40;;;;;;;6.41;61.64;94958.22;4981549;28;20061;-73
2024/02/05 07:23:38;;;;;;;10.50;5.50;;;;;;;6.57;60.67;94927.09;5013075;28;20037;-72
2024/02/05 07:26:03;;;;;;;13.10;6.63;;;;;;;6.89;60.09;94937.88;4996523;28;20033;-72
2024/02/05 07:28:30;;;;;;;9.65;5.65;;;;;;;7.21;59.96;94968.47;4998234;28;20038;-72
2024/02/05 07:30:55;;;;;;;12.88;5.90;;;;;;;7.39;59.27;94962.09;4997907;28;20029;-72
2024/02/05 07:33:20;;;;;;;8.95;4.90;;;;;;;7.48;57.70;94956.28;5031197;28;20068;-72
2024/02/05 07:35:46;;;;;;;9.13;4.95;;;;;;;7.45;55.65;94930.66;5031767;28;20046;-72
2024/02/05 07:38:11;;;;;;;10.65;4.50;;;;;;;7.60;54.94;94960.63;5013486;28;20026;-72
2024/02/05 07:40:37;;;;;;;6.38;4.07;;;;;;;7.52;55.88;94962.91;5027193;28;20041;-71
2024/02/05 07:43:02;;;;;;;9.60;4.72;;;;;;;8.17;54.97;94932.53;5000818;28;20037;-72
2024/02/05 07:45:29;;;;;;;12.57;6.20;;;;;;;8.43;54.23;94962.59;5007516;28;20036;-72
2024/02/05 07:47:54;;;;;;;9.75;4.47;;;;;;;8.53;51.79;94917.91;4994521;28;20030;-72
2024/02/05 07:50:20;;;;;;;7.38;4.43;;;;;;;8.76;51.83;94955.06;5027875;28;20021;-71
2024/02/05 07:52:45;;;;;;;13.18;6.15;;;;;;;8.55;52.39;94929.78;5025801;28;20033;-72
2024/02/05 07:55:11;;;;;;;11.35;6.35;;;;;;;9.44;51.19;94949.06;5026875;28;20389;-71
2024/02/05 07:57:36;;;;;;;18.85;7.45;;;;;;;9.07;51.33;94938.09;5005966;28;20037;-71
2024/02/05 08:00:02;;;;;;;16.88;9.05;;;;;;;8.77;52.00;94933.41;5012906;28;20471;-71
2024/02/05 08:02:28;;;;;;;27.38;10.80;;;;;;;8.55;53.06;94941.91;4996620;28;20037;-71
2024/02/05 08:04:54;;;;;;;16.65;8.82;;;;;;;8.91;52.58;94928.88;5027788;28;20038;-71
2024/02/05 08:07:19;;;;;;;16.35;8.63;;;;;;;8.61;52.13;94895.69;5013712;28;20033;-71
2024/02/05 08:09:45;;;;;;;11.73;6.95;;;;;;;8.93;51.77;94926.97;4997147;28;20022;-71
2024/02/05 08:12:12;;;;;;;17.85;9.85;;;;;;;8.71;53.44;94924.31;5033392;28;20040;-71
2024/02/05 08:14:37;;;;;;;15.05;9.00;;;;;;;8.80;53.06;94926.22;5024702;28;20615;-71
2024/02/05 08:17:03;;;;;;;25.55;13.57;;;;;;;9.01;52.67;94920.41;5028811;28;20030;-71
2024/02/05 08:19:28;;;;;;;26.48;13.52;;;;;;;9.03;53.12;94905.56;4996081;28;20380;-72
2024/02/05 08:21:54;;;;;;;25.15;13.35;;;;;;;9.20;52.29;94935.41;5012961;28;20788;-71
2024/02/05 08:24:19;;;;;;;55.90;29.98;;;;;;;9.33;52.64;94938.69;5014979;28;20030;-71
2024/02/05 08:26:45;;;;;;;39.85;20.13;;;;;;;9.30;51.87;94919.00;4986635;28;20034;-71
2024/02/05 08:29:11;;;;;;;65.70;26.83;;;;;;;9.39;51.63;94933.06;4978111;28;20026;-72
2024/02/05 08:31:36;;;;;;;22.77;13.45;;;;;;;9.16;52.12;94930.47;5015304;28;20030;-71
2024/02/05 08:34:05;;;;;;;21.02;11.07;;;;;;;9.54;51.36;94942.25;4977077;28;20108;-71
2024/02/05 08:36:31;;;;;;;18.95;11.88;;;;;;;9.43;51.78;94934.47;5001541;28;20495;-72
2024/02/05 08:38:56;;;;;;;13.55;8.25;;;;;;;9.29;50.59;94937.28;5003314;28;20481;-72
2024/02/05 08:41:22;;;;;;;15.55;7.43;;;;;;;9.22;51.12;94934.34;5019620;28;20034;-73
2024/02/05 08:43:47;;;;;;;15.43;8.55;;;;;;;8.81;52.52;94933.06;4992977;28;20044;-72
2024/02/05 08:46:13;;;;;;;13.18;7.60;;;;;;;8.73;51.97;94930.22;4995174;28;20508;-73
2024/02/05 08:48:39;;;;;;;19.25;16.08;;;;;;;9.03;51.23;94915.94;5012645;28;20052;-72
2024/02/05 08:51:05;;;;;;;12.25;7.20;;;;;;;9.19;50.66;94934.56;4970073;28;20044;-72
2024/02/05 08:53:30;;;;;;;14.30;8.13;;;;;;;8.97;51.36;94926.75;4994462;28;20029;-73
2024/02/05 08:55:56;;;;;;;16.90;7.95;;;;;;;8.78;52.39;94907.41;5030514;28;20407;-73
2024/02/05 08:58:22;;;;;;;13.07;6.30;;;;;;;9.08;50.88;94916.41;5011935;28;20037;-73
2024/02/05 09:00:48;;;;;;;11.07;6.18;;;;;;;8.91;51.37;94913.34;4984617;28;20488;-73
2024/02/05 09:03:14;;;;;;;11.68;5.53;;;;;;;9.22;50.51;94915.34;5007619;28;20033;-73
2024/02/05 09:05:39;;;;;;;12.27;6.15;;;;;;;9.47;50.17;94945.44;5007906;28;20127;-73
2024/02/05 09:08:06;;;;;;;14.25;6.60;;;;;;;9.64;50.03;94950.16;4985710;28;20026;-73
2024/02/05 09:10:31;;;;;;;9.65;5.78;;;;;;;9.72;49.74;94932.25;4993008;28;20161;-73
2024/02/05 09:12:57;;;;;;;13.43;6.95;;;;;;;9.67;49.27;94905.84;4986100;28;20455;-73
2024/02/05 09:15:22;;;;;;;13.23;6.20;;;;;;;9.70;50.26;94902.19;4993063;28;20030;-73
2024/02/05 09:17:47;;;;;;;11.77;6.57;;;;;;;9.40;49.77;94883.66;5027577;28;20034;-72
2024/02/05 09:20:13;;;;;;;14.75;6.60;;;;;;;9.19;50.52;94864.56;5011509;28;20045;-75
2024/02/05 09:22:45;;;;;;;15.40;6.95;;;;;;;9.38;50.63;94902.88;4978229;28;20037;-73
2024/02/05 09:25:11;;;;;;;18.80;7.47;;;;;;;9.32;50.71;94911.13;5012789;28;20104;-71
2024/02/05 09:27:36;;;;;;;26.65;11.65;;;;;;;9.35;50.79;94901.34;5031108;28;20462;-72
2024/02/05 09:30:04;;;;;;;33.28;14.93;;;;;;;9.35;51.19;94888.38;5034402;28;20037;-72
2024/02/05 09:32:30;;;;;;;14.48;8.85;;;;;;;9.55;51.04;94904.19;5016267;28;20164;-72
2024/02/05 09:34:57;;;;;;;14.80;8.13;;;;;;;9.73;50.34;94894.97;5026372;28;20549;-71
2024/02/05 09:37:23;;;;;;;12.15;5.95;;;;;;;9.56;49.96;94877.31;4988685;28;20508;-71
2024/02/05 09:39:48;;;;;;;14.57;6.78;;;;;;;9.84;50.11;94897.56;4999992;28;20022;-72
2024/02/05 09:42:14;;;;;;;16.63;6.50;;;;;;;10.17;49.87;94876.81;4996811;28;20033;-72
2024/02/05 09:44:39;;;;;;;12.85;6.65;;;;;;;10.39;49.68;94896.72;5024535;28;20095;-72
2024/02/05 09:47:06;;;;;;;18.48;7.70;;;;;;;10.40;48.27;94880.22;5016525;28;20091;-72
2024/02/05 09:49:31;;;;;;;11.50;5.63;;;;;;;10.74;47.80;94883.47;5000029;28;20037;-72
2024/02/05 09:51:57;;;;;;;12.90;6.72;;;;;;;10.70;47.51;94877.72;5033963;28;20095;-72
2024/02/05 09:54:22;;;;;;;12.77;5.60;;;;;;;11.33;44.83;94862.03;5033704;28;20037;-72
2024/02/05 09:56:48;;;;;;;11.82;4.80;;;;;;;11.40;45.48;94847.56;5014854;28;20025;-73
2024/02/05 09:59:13;;;;;;;13.23;6.30;;;;;;;11.60;46.24;94855.44;4991231;28;20022;-73
2024/02/05 10:01:39;;;;;;;13.35;6.47;;;;;;;11.87;45.83;94849.66;4980047;28;20030;-73
2024/02/05 10:04:06;;;;;;;11.43;6.35;;;;;;;11.98;44.55;94849.53;4979930;28;20034;-73
2024/02/05 10:06:33;;;;;;;10.93;5.88;;;;;;;12.36;41.53;94831.47;4996449;28;20097;-73
2024/02/05 10:09:06;;;;;;;11.73;4.70;;;;;;;12.31;41.83;94831.88;4999302;28;20034;-72
2024/02/05 10:11:33;;;;;;;15.18;5.90;;;;;;;12.30;43.03;94851.06;5015635;28;20504;-73
2024/02/05 10:13:59;;;;;;;12.77;4.70;;;;;;;12.73;39.65;94842.00;4982810;28;20455;-73
2024/02/05 10:16:24;;;;;;;8.75;5.38;;;;;;;12.90;39.96;94823.03;5014658;28;20095;-73
2024/02/05 10:18:50;;;;;;;9.68;4.05;;;;;;;13.16;38.44;94818.03;4996538;28;20034;-73
2024/02/05 10:21:18;;;;;;;8.07;4.28;;;;;;;13.13;39.34;94815.69;4971692;28;20152;-73
2024/02/05 10:23:53;;;;;;;6.88;4.00;;;;;;;13.58;38.11;94828.03;4998021;28;20021;-74
2024/02/05 10:26:19;;;;;;;9.93;4.47;;;;;;;13.30;38.96;94832.41;5009764;28;20033;-72
2024/02/05 10:28:44;;;;;;;13.00;3.97;;;;;;;13.46;37.53;94815.34;5022217;28;20112;-73
2024/02/05 10:31:16;;;;;;;8.07;4.60;;;;;;;13.63;37.58;94825.81;4992786;28;20045;-72
2024/02/05 10:33:41;;;;;;;8.00;4.53;;;;;;;13.82;37.70;94816.25;4999603;28;20120;-72
2024/02/05 10:36:07;;;;;;;9.75;4.75;;;;;;;13.66;38.01;94814.25;5030988;28;20063;-73
2024/02/05 10:38:35;;;;;;;8.82;4.50;;;;;;;13.68;37.79;94820.16;4979093;28;20385;-73
2024/02/05 10:41:02;;;;;;;6.80;4.78;;;;;;;13.98;36.23;94789.47;4995941;28;20040;-72
2024/02/05 10:43:27;;;;;;;9.02;3.83;;;;;;;14.11;37.82;94795.16;5028456;28;20033;-71
2024/02/05 10:45:59;;;;;;;8.82;4.60;;;;;;;14.19;35.77;94783.97;5031890;28;20369;-71
2024/02/05 10:48:24;;;;;;;7.47;3.45;;;;;;;14.42;35.55;94795.56;5015689;28;20124;-71
2024/02/05 10:50:50;;;;;;;8.95;4.40;;;;;;;14.36;35.92;94790.16;4982214;28;20117;-71
2024/02/05 10:53:16;;;;;;;7.47;2.83;;;;;;;14.49;34.96;94773.09;5015222;28;20423;-71
2024/02/05 10:55:42;;;;;;;4.43;1.83;;;;;;;14.61;34.13;94789.38;4998653;28;20503;-71
2024/02/05 10:58:07;;;;;;;5.57;2.28;;;;;;;14.84;34.01;94776.63;4998900;28;20065;-72
2024/02/05 11:00:33;;;;;;;15.02;5.40;;;;;;;14.69;35.43;94768.53;4998584;28;20033;-71
2024/02/05 11:03:02;;;;;;;12.18;5.88;;;;;;;15.05;35.46;94775.47;5015013;28;20405;-71
2024/02/05 11:05:27;;;;;;;10.73;5.70;;;;;;;15.15;35.24;94781.38;4998966;28;20099;-72
2024/02/05 11:07:58;;;;;;;6.97;3.78;;;;;;;15.33;33.88;94776.91;5032723;28;20045;-71
2024/02/05 11:10:23;;;;;;;4.05;3.45;;;;;;;15.60;32.16;94795.97;4999028;28;20021;-71
2024/02/05 11:13:00;;;;;;;3.58;1.80;;;;;;;15.61;30.86;94787.97;4998370;28;20553;-71
2024/02/05 11:15:33;;;;;;;6.70;2.35;;;;;;;15.56;30.93;94771.09;4999034;28;20112;-71
2024/02/05 11:18:01;;;;;;;3.88;2.53;;;;;;;15.59;31.49;94762.94;5032194;28;20412;-71
2024/02/05 11:20:28;;;;;;;2.83;1.60;;;;;;;15.74;31.57;94781.47;4982425;28;20026;-72
2024/02/05 11:22:55;;;;;;;5.25;1.95;;;;;;;15.59;30.64;94773.41;4998121;28;20119;-71
2024/02/05 11:25:21;;;;;;;7.07;2.90;;;;;;;15.76;31.04;94766.44;4998997;28;20025;-71
2024/02/05 11:27:47;;;;;;;5.78;3.53;;;;;;;15.70;30.98;94754.00;4998056;28;20499;-71
2024/02/05 11:30:15;;;;;;;5.78;3.03;;;;;;;15.95;30.67;94758.31;4998091;28;20028;-71